Nearby METAR Reports

 

KOXC - Oxford/Waterbury, Connecticut, USA
Distance from station: SE 8mi, 12km
Updated: Sat, 19-Jan-2019 8:51pm EST
Light snow, Mist, Overcast
Light snow, Mist, Overcast
 Wind from ENE
Wind: ENE 7 mph , 11 km/h
Temperature: 27°F , -3°C
Wind Chill: 19°F , -7°C
Dew Point: 25°F , -4°C
Humidity: 93%
Barometer: 30.04 inHg , 1017.3 hPa
Summary: Light snow, Mist
Clouds: Overcast
Visibility: 1 1/2 miles , 2.4 km
Cloud details: Mostly cloudy 1900 ft
Overcast 2500 ft
2019/01/20 01:51 KOXC 200151Z 07006KT 1 1/2SM -SN BR BKN019 OVC025 M03/M04 A3004 RMK AO2 SLP192 P0000 T10281039
KDXR - Danbury, Connecticut, USA
Distance from station: SW 19mi, 30km
Updated: Sat, 19-Jan-2019 8:53pm EST
Light snow, Mist, Overcast
Light snow, Mist, Overcast
 Wind from ENE
Wind: ENE 6 mph , 9 km/h
Temperature: 30°F , -1°C
Wind Chill: 24°F , -4°C
Dew Point: 28°F , -2°C
Humidity: 93%
Barometer: 30.05 inHg , 1017.6 hPa
Summary: Light snow, Mist
Clouds: Overcast
Visibility: 1 1/4 miles , 2 km
Cloud details: Mostly cloudy 900 ft
Overcast 1300 ft
2019/01/20 01:53 KDXR 200153Z 06005KT 1 1/4SM -SN BR BKN009 OVC013 M01/M02 A3005 RMK AO2 SLP182 P0002 T10061022
 
KMMK - Meriden, Connecticut, USA
Distance from station: E 20mi, 33km
Updated: Sat, 19-Jan-2019 8:53pm EST
Light snow, Overcast
Light snow, Overcast
 Wind from E
Wind: E 5 mph , 7 km/h
Temperature: 30°F , -1°C
Wind Chill: 25°F , -4°C
Dew Point: 25°F , -4°C
Humidity: 80%
Barometer: 30.08 inHg , 1018.6 hPa
Summary: Light Snow
Clouds: Overcast
Visibility: 4 miles , 6 km
Cloud details: Mostly cloudy 3800 ft
Overcast 4800 ft
2019/01/20 01:53 KMMK 200153Z AUTO 09004KT 4SM -SN BKN038 OVC048 M01/M04 A3008 RMK AO2 SNB22 SLP187 P0000 T10061044
KBDR - Bridgeport, Connecticut, USA
Distance from station: S 27mi, 44km
Updated: Sat, 19-Jan-2019 8:52pm EST
Light snow, Mist, Overcast
Light snow, Mist, Overcast
 Wind from E
Wind: E 23 mph , 37 km/h
Temperature: 34°F , 1°C
Wind Chill: 22°F , -6°C
Dew Point: 30°F , -1°C
Humidity: 87%
Barometer: 30.08 inHg , 1018.6 hPa
Summary: Light snow, Mist
Clouds: Overcast
Visibility: 3 miles , 5 km
Cloud details: Overcast 1200 ft
2019/01/20 01:52 KBDR 200152Z 09020KT 3SM -SN BR OVC012 01/M01 A3008 RMK AO2 PK WND 09026/0058 UPB14E20SNB20 SLP184 P0001 T00111006
 
KHVN - New Haven/Tweed, Connecticut, USA
Distance from station: SE 27mi, 44km
Updated: Sat, 19-Jan-2019 8:53pm EST
Light snow, Overcast
Light snow, Overcast
 Wind from ENE
Wind: ENE 10 mph , 17 km/h
Temperature: 36°F , 2°C
Wind Chill: 29°F , -2°C
Dew Point: 27°F , -3°C
Humidity: 70%
Barometer: 30.07 inHg , 1018.3 hPa
Summary: Light Snow
Clouds: Overcast
Visibility: 7 miles , 11 km
Cloud details: Partly cloudy 1800 ft
Overcast 4000 ft
2019/01/20 01:53 KHVN 200153Z 07009KT 7SM -SN SCT018 OVC040 02/M03 A3007 RMK AO2 SNB52 SLP180 P0000 T00171033
KHFD - Hartford/Brainar, Connecticut, USA
Distance from station: ENE 32mi, 52km
Updated: Sat, 19-Jan-2019 8:53pm EST
Light snow, Overcast
Light snow, Overcast
 Wind from ENE
Wind: ENE 7 mph , 11 km/h
Temperature: 30°F , -1°C
Wind Chill: 23°F , -5°C
Dew Point: 23°F , -5°C
Humidity: 75%
Barometer: 30.09 inHg , 1019 hPa
Summary: Light Snow
Clouds: Overcast
Visibility: 7 miles , 11 km
Cloud details: Mostly cloudy 2200 ft
Overcast 3000 ft
2019/01/20 01:53 KHFD 200153Z 07006KT 7SM -SN BKN022 OVC030 M01/M05 A3009 RMK AO2 SNB53 SLP190 P0000 T10061050
 
KPOU - Poughkeepsie, New York, USA
Distance from station: W 35mi, 56km
Updated: Sat, 19-Jan-2019 8:53pm EST
Light snow, Overcast
Light snow, Overcast
 Wind from N
Wind: N 6 mph , 9 km/h
Temperature: 25°F , -4°C
Wind Chill: 18°F , -8°C
Dew Point: 19°F , -7°C
Humidity: 80%
Barometer: 30.05 inHg , 1017.6 hPa
Summary: Light Snow
Clouds: Overcast
Visibility: 3/4 mile , 1.2 km
Cloud details: Overcast 1500 ft
2019/01/20 01:53 KPOU 200153Z 36005KT 3/4SM -SN VV015 M04/M07 A3005 RMK AO2 SLP176 P0002 T10441072
KBDL - Windsor Locks, Connecticut, USA
Distance from station: NE 38mi, 62km
Updated: Sat, 19-Jan-2019 8:51pm EST
Light snow, Mist, Overcast
Light snow, Mist, Overcast
 Wind from NE
Wind: NE 8 mph , 13 km/h
Temperature: 28°F , -2°C
Wind Chill: 20°F , -7°C
Dew Point: 25°F , -4°C
Humidity: 86%
Barometer: 30.10 inHg , 1019.3 hPa
Summary: Light snow, Mist
Clouds: Overcast
Visibility: 1 1/2 miles , 2.4 km
Cloud details: Overcast 2200 ft
2019/01/20 01:51 KBDL 200151Z 05007KT 1 1/2SM -SN BR OVC022 M02/M04 A3010 RMK AO2 SFC VIS 2 SLP193 P0000 T10221039
 
KSNC - Chester, Connecticut, USA
Distance from station: ESE 39mi, 63km
Updated: Sat, 19-Jan-2019 8:55pm EST
Overcast
Overcast
 Wind from E
Wind: E 5 mph , 7 km/h, Gust: 13 mph , 20 km/h
Temperature: 32°F , 0°C
Wind Chill: 27°F , -3°C
Dew Point: 25°F , -4°C
Humidity: 75%
Barometer: 30.06 inHg , 1017.9 hPa
Clouds: Overcast
Visibility: 10 miles , 16 km
Cloud details: Overcast 1400 ft
2019/01/20 01:55 KSNC 200155Z AUTO 08004G11KT 10SM OVC014 M00/M04 A3006 RMK AO2
KHPN - White Plains, New York, USA
Distance from station: SW 42mi, 67km
Updated: Sat, 19-Jan-2019 7:56pm EST
Light snow, Mist, Overcast
Light snow, Mist, Overcast
 Wind from ESE
Wind: ESE 10 mph , 17 km/h, Gust: 23 mph , 37 km/h
Temperature: 34°F , 1°C
Wind Chill: 26°F , -3°C
Dew Point: 30°F , -1°C
Humidity: 87%
Barometer: 30.01 inHg , 1016.3 hPa
Summary: Light snow, Mist
Clouds: Overcast
Visibility: 2 1/2 miles , 4 km
Cloud details: Mostly cloudy 1200 ft
Overcast 1700 ft
2019/01/20 00:56 KHPN 200056Z 11009G20KT 2 1/2SM -SN BR BKN012 OVC017 01/M01 A3001 RMK AO2 SNB02 SLP172 P0000 T00111011
 
KSWF - Newburgh/Stewart, New York, USA
Distance from station: W 45mi, 72km
Updated: Sat, 19-Jan-2019 7:45pm EST
Light snow, Mist, Overcast
Light snow, Mist, Overcast
 Wind from E
Wind: E 6 mph , 9 km/h
Temperature: 25°F , -4°C
Wind Chill: 18°F , -8°C
Dew Point: 25°F , -4°C
Humidity: 100%
Barometer: 30.04 inHg , 1017.3 hPa
Summary: Light snow, Mist
Clouds: Overcast
Visibility: 1 1/2 miles , 2.4 km
Cloud details: Overcast 500 ft
2019/01/20 00:45 KSWF 200045Z 08005KT 1 1/2SM -SN BR OVC005 M04/M04 A3004 RMK PRESFR
KBAF - Westfield, Massachusetts, USA
Distance from station: NNE 50mi, 80km
Updated: Sat, 19-Jan-2019 8:53pm EST
Light snow, Overcast
Light snow, Overcast
 Wind from NE
Wind: NE 7 mph , 11 km/h
Temperature: 28°F , -2°C
Wind Chill: 21°F , -6°C
Dew Point: 23°F , -5°C
Humidity: 80%
Barometer: 30.10 inHg , 1019.3 hPa
Summary: Light Snow
Clouds: Overcast
Visibility: 1 3/4 miles , 2.8 km
Cloud details: Overcast 2600 ft
2019/01/20 01:53 KBAF 200153Z 05006KT 1 3/4SM -SN OVC026 M02/M05 A3010 RMK AO2 SLP201 P0000 T10221050